sensor_id;sensor_type;location;lat;lon;timestamp;P1;durP1;ratioP1;P2;durP2;ratioP2
27223;SDS011;14965;50.660;13.226;2023-05-01T00:02:25;30.58;;;16.48;;
27223;SDS011;14965;50.660;13.226;2023-05-01T00:04:50;33.20;;;17.08;;
27223;SDS011;14965;50.660;13.226;2023-05-01T00:07:16;35.80;;;18.25;;
27223;SDS011;14965;50.660;13.226;2023-05-01T00:09:42;30.60;;;17.27;;
27223;SDS011;14965;50.660;13.226;2023-05-01T00:12:08;28.85;;;17.35;;
27223;SDS011;14965;50.660;13.226;2023-05-01T00:14:35;31.45;;;17.75;;
27223;SDS011;14965;50.660;13.226;2023-05-01T00:17:02;32.90;;;17.67;;
27223;SDS011;14965;50.660;13.226;2023-05-01T00:19:28;31.95;;;16.25;;
27223;SDS011;14965;50.660;13.226;2023-05-01T00:21:54;28.15;;;16.55;;
27223;SDS011;14965;50.660;13.226;2023-05-01T00:24:20;27.38;;;15.45;;
27223;SDS011;14965;50.660;13.226;2023-05-01T00:26:45;27.67;;;15.50;;
27223;SDS011;14965;50.660;13.226;2023-05-01T00:29:12;28.23;;;15.38;;
27223;SDS011;14965;50.660;13.226;2023-05-01T00:31:38;31.15;;;14.98;;
27223;SDS011;14965;50.660;13.226;2023-05-01T00:34:05;26.23;;;10.88;;
27223;SDS011;14965;50.660;13.226;2023-05-01T00:36:31;22.80;;;12.07;;
27223;SDS011;14965;50.660;13.226;2023-05-01T00:38:57;22.13;;;10.93;;
27223;SDS011;14965;50.660;13.226;2023-05-01T00:41:22;18.15;;;10.23;;
27223;SDS011;14965;50.660;13.226;2023-05-01T00:43:48;15.85;;;8.25;;
27223;SDS011;14965;50.660;13.226;2023-05-01T00:46:14;20.00;;;8.40;;
27223;SDS011;14965;50.660;13.226;2023-05-01T00:48:40;18.88;;;8.18;;
27223;SDS011;14965;50.660;13.226;2023-05-01T00:51:07;18.45;;;8.18;;
27223;SDS011;14965;50.660;13.226;2023-05-01T00:53:34;16.40;;;8.80;;
27223;SDS011;14965;50.660;13.226;2023-05-01T00:56:00;16.90;;;8.68;;
27223;SDS011;14965;50.660;13.226;2023-05-01T00:58:27;20.08;;;9.73;;
27223;SDS011;14965;50.660;13.226;2023-05-01T01:00:54;20.95;;;10.05;;
27223;SDS011;14965;50.660;13.226;2023-05-01T01:03:19;18.90;;;10.07;;
27223;SDS011;14965;50.660;13.226;2023-05-01T01:05:47;18.52;;;9.95;;
27223;SDS011;14965;50.660;13.226;2023-05-01T01:08:27;20.75;;;10.35;;
27223;SDS011;14965;50.660;13.226;2023-05-01T01:11:07;23.63;;;10.60;;
27223;SDS011;14965;50.660;13.226;2023-05-01T01:13:45;21.80;;;10.63;;
27223;SDS011;14965;50.660;13.226;2023-05-01T01:16:34;28.02;;;11.57;;
27223;SDS011;14965;50.660;13.226;2023-05-01T01:19:16;25.20;;;11.30;;
27223;SDS011;14965;50.660;13.226;2023-05-01T01:22:21;20.00;;;11.27;;
27223;SDS011;14965;50.660;13.226;2023-05-01T01:25:05;24.77;;;12.13;;
27223;SDS011;14965;50.660;13.226;2023-05-01T01:28:23;24.08;;;11.90;;
27223;SDS011;14965;50.660;13.226;2023-05-01T01:31:19;23.35;;;12.55;;
27223;SDS011;14965;50.660;13.226;2023-05-01T01:34:00;25.63;;;11.35;;
27223;SDS011;14965;50.660;13.226;2023-05-01T01:36:42;24.77;;;12.43;;
27223;SDS011;14965;50.660;13.226;2023-05-01T01:39:20;22.73;;;12.77;;
27223;SDS011;14965;50.660;13.226;2023-05-01T01:41:55;22.65;;;12.25;;
27223;SDS011;14965;50.660;13.226;2023-05-01T01:44:24;20.92;;;12.02;;
27223;SDS011;14965;50.660;13.226;2023-05-01T01:46:58;26.02;;;12.35;;
27223;SDS011;14965;50.660;13.226;2023-05-01T01:49:30;22.80;;;12.55;;
27223;SDS011;14965;50.660;13.226;2023-05-01T01:52:01;24.33;;;13.75;;
27223;SDS011;14965;50.660;13.226;2023-05-01T01:57:02;24.63;;;13.05;;
27223;SDS011;14965;50.660;13.226;2023-05-01T01:59:32;27.02;;;13.88;;
27223;SDS011;14965;50.660;13.226;2023-05-01T02:01:59;24.27;;;13.13;;
27223;SDS011;14965;50.660;13.226;2023-05-01T02:04:27;26.63;;;13.73;;
27223;SDS011;14965;50.660;13.226;2023-05-01T02:09:24;27.15;;;13.70;;
27223;SDS011;14965;50.660;13.226;2023-05-01T02:11:53;26.40;;;13.70;;
27223;SDS011;14965;50.660;13.226;2023-05-01T02:14:21;25.45;;;12.90;;
27223;SDS011;14965;50.660;13.226;2023-05-01T02:16:50;25.40;;;13.18;;
27223;SDS011;14965;50.660;13.226;2023-05-01T02:19:18;25.52;;;13.60;;
27223;SDS011;14965;50.660;13.226;2023-05-01T02:21:46;27.00;;;14.00;;
27223;SDS011;14965;50.660;13.226;2023-05-01T02:24:14;28.40;;;13.52;;
27223;SDS011;14965;50.660;13.226;2023-05-01T02:26:42;28.38;;;13.73;;
27223;SDS011;14965;50.660;13.226;2023-05-01T02:29:13;27.85;;;13.77;;
27223;SDS011;14965;50.660;13.226;2023-05-01T02:31:39;31.17;;;14.70;;
27223;SDS011;14965;50.660;13.226;2023-05-01T02:34:05;25.08;;;14.20;;
27223;SDS011;14965;50.660;13.226;2023-05-01T02:36:31;28.75;;;14.95;;
27223;SDS011;14965;50.660;13.226;2023-05-01T02:38:58;24.48;;;14.60;;
27223;SDS011;14965;50.660;13.226;2023-05-01T02:41:24;32.47;;;15.45;;
27223;SDS011;14965;50.660;13.226;2023-05-01T02:43:53;27.17;;;14.55;;
27223;SDS011;14965;50.660;13.226;2023-05-01T02:46:25;28.00;;;14.57;;
27223;SDS011;14965;50.660;13.226;2023-05-01T02:48:54;30.00;;;15.45;;
27223;SDS011;14965;50.660;13.226;2023-05-01T02:51:21;27.23;;;15.70;;
27223;SDS011;14965;50.660;13.226;2023-05-01T02:53:48;29.52;;;15.73;;
27223;SDS011;14965;50.660;13.226;2023-05-01T02:56:16;30.25;;;15.93;;
27223;SDS011;14965;50.660;13.226;2023-05-01T02:58:42;28.40;;;15.77;;
27223;SDS011;14965;50.660;13.226;2023-05-01T03:01:08;31.05;;;15.35;;
27223;SDS011;14965;50.660;13.226;2023-05-01T03:03:34;24.38;;;14.10;;
27223;SDS011;14965;50.660;13.226;2023-05-01T03:05:59;30.17;;;13.80;;
27223;SDS011;14965;50.660;13.226;2023-05-01T03:08:25;31.42;;;14.50;;
27223;SDS011;14965;50.660;13.226;2023-05-01T03:10:51;29.50;;;15.32;;
27223;SDS011;14965;50.660;13.226;2023-05-01T03:13:18;28.80;;;14.45;;
27223;SDS011;14965;50.660;13.226;2023-05-01T03:15:44;31.92;;;14.73;;
27223;SDS011;14965;50.660;13.226;2023-05-01T03:18:10;30.92;;;13.68;;
27223;SDS011;14965;50.660;13.226;2023-05-01T03:20:36;27.17;;;13.23;;
27223;SDS011;14965;50.660;13.226;2023-05-01T03:23:01;29.20;;;13.43;;
27223;SDS011;14965;50.660;13.226;2023-05-01T03:25:27;27.95;;;13.52;;
27223;SDS011;14965;50.660;13.226;2023-05-01T03:27:53;26.40;;;13.60;;
27223;SDS011;14965;50.660;13.226;2023-05-01T03:30:21;27.95;;;12.95;;
27223;SDS011;14965;50.660;13.226;2023-05-01T03:32:46;27.08;;;13.40;;
27223;SDS011;14965;50.660;13.226;2023-05-01T03:35:12;24.95;;;12.88;;
27223;SDS011;14965;50.660;13.226;2023-05-01T03:37:38;28.50;;;13.10;;
27223;SDS011;14965;50.660;13.226;2023-05-01T03:40:05;25.77;;;12.93;;
27223;SDS011;14965;50.660;13.226;2023-05-01T03:42:32;26.85;;;13.55;;
27223;SDS011;14965;50.660;13.226;2023-05-01T03:44:57;26.88;;;12.55;;
27223;SDS011;14965;50.660;13.226;2023-05-01T03:47:25;26.58;;;12.88;;
27223;SDS011;14965;50.660;13.226;2023-05-01T03:49:50;26.10;;;13.10;;
27223;SDS011;14965;50.660;13.226;2023-05-01T03:52:16;24.83;;;12.05;;
27223;SDS011;14965;50.660;13.226;2023-05-01T03:54:42;21.98;;;11.63;;
27223;SDS011;14965;50.660;13.226;2023-05-01T03:57:08;23.70;;;12.30;;
27223;SDS011;14965;50.660;13.226;2023-05-01T03:59:34;23.60;;;12.10;;
27223;SDS011;14965;50.660;13.226;2023-05-01T04:01:59;23.77;;;11.35;;
27223;SDS011;14965;50.660;13.226;2023-05-01T04:04:27;20.98;;;11.07;;
27223;SDS011;14965;50.660;13.226;2023-05-01T04:06:52;22.33;;;10.38;;
27223;SDS011;14965;50.660;13.226;2023-05-01T04:09:18;21.20;;;10.68;;
27223;SDS011;14965;50.660;13.226;2023-05-01T04:11:44;21.35;;;11.65;;
27223;SDS011;14965;50.660;13.226;2023-05-01T04:14:10;22.52;;;12.38;;
27223;SDS011;14965;50.660;13.226;2023-05-01T04:16:36;27.50;;;13.82;;
27223;SDS011;14965;50.660;13.226;2023-05-01T04:19:01;25.58;;;12.90;;
27223;SDS011;14965;50.660;13.226;2023-05-01T04:21:29;28.77;;;14.30;;
27223;SDS011;14965;50.660;13.226;2023-05-01T04:23:54;23.60;;;14.27;;
27223;SDS011;14965;50.660;13.226;2023-05-01T04:26:20;25.40;;;13.98;;
27223;SDS011;14965;50.660;13.226;2023-05-01T04:28:46;31.40;;;16.60;;
27223;SDS011;14965;50.660;13.226;2023-05-01T04:31:12;27.08;;;14.73;;
27223;SDS011;14965;50.660;13.226;2023-05-01T04:33:38;31.98;;;17.58;;
27223;SDS011;14965;50.660;13.226;2023-05-01T04:36:04;33.50;;;16.33;;
27223;SDS011;14965;50.660;13.226;2023-05-01T04:38:32;36.15;;;16.58;;
27223;SDS011;14965;50.660;13.226;2023-05-01T04:40:57;31.60;;;15.40;;
27223;SDS011;14965;50.660;13.226;2023-05-01T04:43:23;28.55;;;16.42;;
27223;SDS011;14965;50.660;13.226;2023-05-01T04:45:49;26.77;;;15.13;;
27223;SDS011;14965;50.660;13.226;2023-05-01T04:48:15;30.63;;;16.27;;
27223;SDS011;14965;50.660;13.226;2023-05-01T04:50:41;28.20;;;15.60;;
27223;SDS011;14965;50.660;13.226;2023-05-01T04:53:07;29.70;;;17.65;;
27223;SDS011;14965;50.660;13.226;2023-05-01T04:55:34;34.33;;;18.75;;
27223;SDS011;14965;50.660;13.226;2023-05-01T04:58:00;36.17;;;18.98;;
27223;SDS011;14965;50.660;13.226;2023-05-01T05:00:26;33.55;;;18.23;;
27223;SDS011;14965;50.660;13.226;2023-05-01T05:02:52;35.15;;;19.38;;
27223;SDS011;14965;50.660;13.226;2023-05-01T05:05:18;31.85;;;19.13;;
27223;SDS011;14965;50.660;13.226;2023-05-01T05:07:43;36.95;;;19.15;;
27223;SDS011;14965;50.660;13.226;2023-05-01T05:10:09;26.95;;;18.27;;
27223;SDS011;14965;50.660;13.226;2023-05-01T05:12:36;32.55;;;19.50;;
27223;SDS011;14965;50.660;13.226;2023-05-01T05:15:02;31.92;;;18.55;;
27223;SDS011;14965;50.660;13.226;2023-05-01T05:17:29;35.55;;;19.65;;
27223;SDS011;14965;50.660;13.226;2023-05-01T05:19:55;33.75;;;19.27;;
27223;SDS011;14965;50.660;13.226;2023-05-01T05:22:21;36.55;;;20.45;;
27223;SDS011;14965;50.660;13.226;2023-05-01T05:24:51;42.45;;;21.30;;
27223;SDS011;14965;50.660;13.226;2023-05-01T05:27:17;39.42;;;21.60;;
27223;SDS011;14965;50.660;13.226;2023-05-01T05:29:45;37.42;;;21.48;;
27223;SDS011;14965;50.660;13.226;2023-05-01T05:32:11;38.78;;;22.02;;
27223;SDS011;14965;50.660;13.226;2023-05-01T05:34:36;37.35;;;22.63;;
27223;SDS011;14965;50.660;13.226;2023-05-01T05:37:02;41.90;;;22.13;;
27223;SDS011;14965;50.660;13.226;2023-05-01T05:39:28;36.40;;;20.42;;
27223;SDS011;14965;50.660;13.226;2023-05-01T05:41:54;35.72;;;21.42;;
27223;SDS011;14965;50.660;13.226;2023-05-01T05:44:20;37.78;;;21.35;;
27223;SDS011;14965;50.660;13.226;2023-05-01T05:46:47;34.65;;;20.98;;
27223;SDS011;14965;50.660;13.226;2023-05-01T05:49:13;32.03;;;18.40;;
27223;SDS011;14965;50.660;13.226;2023-05-01T05:51:39;31.13;;;17.98;;
27223;SDS011;14965;50.660;13.226;2023-05-01T05:54:04;32.55;;;17.70;;
27223;SDS011;14965;50.660;13.226;2023-05-01T05:56:31;32.97;;;18.77;;
27223;SDS011;14965;50.660;13.226;2023-05-01T05:58:57;28.65;;;17.75;;
27223;SDS011;14965;50.660;13.226;2023-05-01T06:01:22;31.08;;;17.02;;
27223;SDS011;14965;50.660;13.226;2023-05-01T06:03:50;29.63;;;15.40;;
27223;SDS011;14965;50.660;13.226;2023-05-01T06:06:15;22.42;;;14.25;;
27223;SDS011;14965;50.660;13.226;2023-05-01T06:08:41;26.02;;;14.63;;
27223;SDS011;14965;50.660;13.226;2023-05-01T06:11:07;23.63;;;13.85;;
27223;SDS011;14965;50.660;13.226;2023-05-01T06:13:33;25.38;;;13.90;;
27223;SDS011;14965;50.660;13.226;2023-05-01T06:15:59;32.13;;;12.30;;
27223;SDS011;14965;50.660;13.226;2023-05-01T06:18:25;20.63;;;12.63;;
27223;SDS011;14965;50.660;13.226;2023-05-01T06:20:52;20.58;;;11.15;;
27223;SDS011;14965;50.660;13.226;2023-05-01T06:23:19;25.88;;;11.25;;
27223;SDS011;14965;50.660;13.226;2023-05-01T06:25:45;19.25;;;11.18;;
27223;SDS011;14965;50.660;13.226;2023-05-01T06:28:10;18.75;;;10.38;;
27223;SDS011;14965;50.660;13.226;2023-05-01T06:30:36;19.45;;;9.98;;
27223;SDS011;14965;50.660;13.226;2023-05-01T06:33:02;20.83;;;10.60;;
27223;SDS011;14965;50.660;13.226;2023-05-01T06:35:28;19.83;;;10.50;;
27223;SDS011;14965;50.660;13.226;2023-05-01T06:37:55;18.05;;;10.18;;
27223;SDS011;14965;50.660;13.226;2023-05-01T06:40:21;18.83;;;10.52;;
27223;SDS011;14965;50.660;13.226;2023-05-01T06:42:47;18.70;;;10.75;;
27223;SDS011;14965;50.660;13.226;2023-05-01T06:45:13;21.38;;;9.98;;
27223;SDS011;14965;50.660;13.226;2023-05-01T06:47:38;19.70;;;10.32;;
27223;SDS011;14965;50.660;13.226;2023-05-01T06:50:05;19.80;;;10.73;;
27223;SDS011;14965;50.660;13.226;2023-05-01T06:52:32;22.75;;;11.48;;
27223;SDS011;14965;50.660;13.226;2023-05-01T06:54:59;20.63;;;11.93;;
27223;SDS011;14965;50.660;13.226;2023-05-01T06:57:25;20.15;;;11.10;;
27223;SDS011;14965;50.660;13.226;2023-05-01T06:59:51;20.75;;;11.20;;
27223;SDS011;14965;50.660;13.226;2023-05-01T07:02:17;19.20;;;10.82;;
27223;SDS011;14965;50.660;13.226;2023-05-01T07:04:43;20.85;;;11.95;;
27223;SDS011;14965;50.660;13.226;2023-05-01T07:07:08;20.52;;;11.75;;
27223;SDS011;14965;50.660;13.226;2023-05-01T07:09:34;19.40;;;10.63;;
27223;SDS011;14965;50.660;13.226;2023-05-01T07:12:02;19.50;;;12.02;;
27223;SDS011;14965;50.660;13.226;2023-05-01T07:14:29;20.88;;;11.95;;
27223;SDS011;14965;50.660;13.226;2023-05-01T07:16:55;18.42;;;10.95;;
27223;SDS011;14965;50.660;13.226;2023-05-01T07:19:20;21.02;;;11.73;;
27223;SDS011;14965;50.660;13.226;2023-05-01T07:21:46;20.80;;;10.57;;
27223;SDS011;14965;50.660;13.226;2023-05-01T07:24:12;19.00;;;10.13;;
27223;SDS011;14965;50.660;13.226;2023-05-01T07:26:38;19.17;;;10.65;;
27223;SDS011;14965;50.660;13.226;2023-05-01T07:29:05;17.17;;;9.52;;
27223;SDS011;14965;50.660;13.226;2023-05-01T07:31:31;18.00;;;9.93;;
27223;SDS011;14965;50.660;13.226;2023-05-01T07:33:56;16.70;;;10.32;;
27223;SDS011;14965;50.660;13.226;2023-05-01T07:36:22;19.23;;;10.02;;
27223;SDS011;14965;50.660;13.226;2023-05-01T07:38:48;17.23;;;9.63;;
27223;SDS011;14965;50.660;13.226;2023-05-01T07:41:14;17.42;;;9.82;;
27223;SDS011;14965;50.660;13.226;2023-05-01T07:43:40;19.95;;;9.95;;
27223;SDS011;14965;50.660;13.226;2023-05-01T07:46:07;20.10;;;10.70;;
27223;SDS011;14965;50.660;13.226;2023-05-01T07:48:33;16.98;;;10.85;;
27223;SDS011;14965;50.660;13.226;2023-05-01T07:51:00;20.10;;;10.13;;
27223;SDS011;14965;50.660;13.226;2023-05-01T07:53:27;20.45;;;10.57;;
27223;SDS011;14965;50.660;13.226;2023-05-01T07:55:53;19.15;;;10.52;;
27223;SDS011;14965;50.660;13.226;2023-05-01T07:58:19;19.35;;;10.50;;
27223;SDS011;14965;50.660;13.226;2023-05-01T08:00:44;22.92;;;11.57;;
27223;SDS011;14965;50.660;13.226;2023-05-01T08:03:12;16.92;;;9.38;;
27223;SDS011;14965;50.660;13.226;2023-05-01T08:05:38;26.65;;;11.30;;
27223;SDS011;14965;50.660;13.226;2023-05-01T08:08:05;18.42;;;10.02;;
27223;SDS011;14965;50.660;13.226;2023-05-01T08:10:30;19.73;;;10.10;;
27223;SDS011;14965;50.660;13.226;2023-05-01T08:12:56;19.30;;;10.32;;
27223;SDS011;14965;50.660;13.226;2023-05-01T08:15:22;21.98;;;11.00;;
27223;SDS011;14965;50.660;13.226;2023-05-01T08:17:48;17.88;;;10.55;;
27223;SDS011;14965;50.660;13.226;2023-05-01T08:20:15;17.15;;;10.43;;
27223;SDS011;14965;50.660;13.226;2023-05-01T08:22:41;22.77;;;11.52;;
27223;SDS011;14965;50.660;13.226;2023-05-01T08:25:07;18.88;;;11.15;;
27223;SDS011;14965;50.660;13.226;2023-05-01T08:27:33;18.70;;;11.18;;
27223;SDS011;14965;50.660;13.226;2023-05-01T08:29:59;20.48;;;10.65;;
27223;SDS011;14965;50.660;13.226;2023-05-01T08:32:25;21.50;;;11.27;;
27223;SDS011;14965;50.660;13.226;2023-05-01T08:34:51;18.27;;;10.52;;
27223;SDS011;14965;50.660;13.226;2023-05-01T08:37:18;19.40;;;10.48;;
27223;SDS011;14965;50.660;13.226;2023-05-01T08:39:44;16.77;;;9.63;;
27223;SDS011;14965;50.660;13.226;2023-05-01T08:42:10;16.48;;;8.80;;
27223;SDS011;14965;50.660;13.226;2023-05-01T08:44:36;17.70;;;10.40;;
27223;SDS011;14965;50.660;13.226;2023-05-01T08:47:06;15.48;;;9.45;;
27223;SDS011;14965;50.660;13.226;2023-05-01T08:49:36;17.40;;;9.25;;
27223;SDS011;14965;50.660;13.226;2023-05-01T08:52:04;16.35;;;8.93;;
27223;SDS011;14965;50.660;13.226;2023-05-01T08:54:33;17.35;;;8.82;;
27223;SDS011;14965;50.660;13.226;2023-05-01T08:57:01;13.38;;;8.45;;
27223;SDS011;14965;50.660;13.226;2023-05-01T08:59:27;17.20;;;8.73;;
27223;SDS011;14965;50.660;13.226;2023-05-01T09:01:55;17.15;;;8.50;;
27223;SDS011;14965;50.660;13.226;2023-05-01T09:06:52;16.00;;;8.83;;
27223;SDS011;14965;50.660;13.226;2023-05-01T09:09:19;15.75;;;8.95;;
27223;SDS011;14965;50.660;13.226;2023-05-01T09:11:46;21.13;;;9.93;;
27223;SDS011;14965;50.660;13.226;2023-05-01T09:14:12;17.20;;;9.75;;
27223;SDS011;14965;50.660;13.226;2023-05-01T09:16:38;17.38;;;9.07;;
27223;SDS011;14965;50.660;13.226;2023-05-01T09:19:04;14.45;;;8.75;;
27223;SDS011;14965;50.660;13.226;2023-05-01T09:21:30;18.88;;;9.48;;
27223;SDS011;14965;50.660;13.226;2023-05-01T09:23:56;18.83;;;10.00;;
27223;SDS011;14965;50.660;13.226;2023-05-01T09:26:22;18.35;;;10.43;;
27223;SDS011;14965;50.660;13.226;2023-05-01T09:28:49;15.55;;;9.70;;
27223;SDS011;14965;50.660;13.226;2023-05-01T09:31:19;14.90;;;9.68;;
27223;SDS011;14965;50.660;13.226;2023-05-01T09:33:55;21.65;;;9.80;;
27223;SDS011;14965;50.660;13.226;2023-05-01T09:36:23;15.90;;;9.05;;
27223;SDS011;14965;50.660;13.226;2023-05-01T09:38:50;19.63;;;9.15;;
27223;SDS011;14965;50.660;13.226;2023-05-01T09:41:16;15.90;;;9.15;;
27223;SDS011;14965;50.660;13.226;2023-05-01T09:43:47;18.67;;;9.45;;
27223;SDS011;14965;50.660;13.226;2023-05-01T09:46:16;16.25;;;8.68;;
27223;SDS011;14965;50.660;13.226;2023-05-01T09:48:50;18.60;;;9.15;;
27223;SDS011;14965;50.660;13.226;2023-05-01T09:51:21;19.95;;;9.68;;
27223;SDS011;14965;50.660;13.226;2023-05-01T09:53:50;14.95;;;8.93;;
27223;SDS011;14965;50.660;13.226;2023-05-01T09:56:16;14.77;;;8.13;;
27223;SDS011;14965;50.660;13.226;2023-05-01T09:58:43;14.13;;;8.35;;
27223;SDS011;14965;50.660;13.226;2023-05-01T10:01:10;17.20;;;8.73;;
27223;SDS011;14965;50.660;13.226;2023-05-01T10:03:36;18.10;;;8.40;;
27223;SDS011;14965;50.660;13.226;2023-05-01T10:06:02;15.25;;;8.88;;
27223;SDS011;14965;50.660;13.226;2023-05-01T10:08:42;19.70;;;8.80;;
27223;SDS011;14965;50.660;13.226;2023-05-01T10:11:09;16.00;;;9.07;;
27223;SDS011;14965;50.660;13.226;2023-05-01T10:13:35;16.95;;;9.00;;
27223;SDS011;14965;50.660;13.226;2023-05-01T10:16:01;12.90;;;8.20;;
27223;SDS011;14965;50.660;13.226;2023-05-01T10:18:28;22.02;;;8.30;;
27223;SDS011;14965;50.660;13.226;2023-05-01T10:20:55;19.70;;;8.30;;
27223;SDS011;14965;50.660;13.226;2023-05-01T10:23:20;13.07;;;7.88;;
27223;SDS011;14965;50.660;13.226;2023-05-01T10:25:47;15.95;;;8.30;;
27223;SDS011;14965;50.660;13.226;2023-05-01T10:28:17;17.08;;;8.45;;
27223;SDS011;14965;50.660;13.226;2023-05-01T10:30:44;14.70;;;8.25;;
27223;SDS011;14965;50.660;13.226;2023-05-01T10:33:11;11.70;;;7.78;;
27223;SDS011;14965;50.660;13.226;2023-05-01T10:35:39;11.90;;;7.20;;
27223;SDS011;14965;50.660;13.226;2023-05-01T10:38:12;14.02;;;7.25;;
27223;SDS011;14965;50.660;13.226;2023-05-01T10:40:48;12.35;;;7.20;;
27223;SDS011;14965;50.660;13.226;2023-05-01T10:43:15;12.73;;;7.03;;
27223;SDS011;14965;50.660;13.226;2023-05-01T10:45:44;14.07;;;7.47;;
27223;SDS011;14965;50.660;13.226;2023-05-01T10:48:12;13.65;;;7.55;;
27223;SDS011;14965;50.660;13.226;2023-05-01T10:51:19;16.55;;;8.10;;
27223;SDS011;14965;50.660;13.226;2023-05-01T10:53:46;15.43;;;7.97;;
27223;SDS011;14965;50.660;13.226;2023-05-01T10:59:07;13.25;;;7.88;;
27223;SDS011;14965;50.660;13.226;2023-05-01T11:01:33;13.27;;;7.05;;
27223;SDS011;14965;50.660;13.226;2023-05-01T11:04:01;13.93;;;6.88;;
27223;SDS011;14965;50.660;13.226;2023-05-01T11:06:30;13.60;;;7.23;;
27223;SDS011;14965;50.660;13.226;2023-05-01T11:08:56;12.27;;;6.88;;
27223;SDS011;14965;50.660;13.226;2023-05-01T11:14:13;12.10;;;6.65;;
27223;SDS011;14965;50.660;13.226;2023-05-01T11:16:39;12.93;;;6.38;;
27223;SDS011;14965;50.660;13.226;2023-05-01T11:19:07;10.95;;;6.45;;
27223;SDS011;14965;50.660;13.226;2023-05-01T11:21:36;15.25;;;7.18;;
27223;SDS011;14965;50.660;13.226;2023-05-01T11:24:03;9.55;;;5.60;;
27223;SDS011;14965;50.660;13.226;2023-05-01T11:26:30;10.98;;;5.88;;
27223;SDS011;14965;50.660;13.226;2023-05-01T11:29:01;11.38;;;5.82;;
27223;SDS011;14965;50.660;13.226;2023-05-01T11:31:28;10.13;;;5.47;;
27223;SDS011;14965;50.660;13.226;2023-05-01T11:33:54;10.23;;;5.40;;
27223;SDS011;14965;50.660;13.226;2023-05-01T11:36:21;9.20;;;5.00;;
27223;SDS011;14965;50.660;13.226;2023-05-01T11:38:52;12.48;;;5.50;;
27223;SDS011;14965;50.660;13.226;2023-05-01T11:41:19;9.45;;;4.80;;
27223;SDS011;14965;50.660;13.226;2023-05-01T11:43:48;8.90;;;4.60;;
27223;SDS011;14965;50.660;13.226;2023-05-01T11:46:21;8.32;;;5.07;;
27223;SDS011;14965;50.660;13.226;2023-05-01T11:48:48;12.18;;;5.28;;
27223;SDS011;14965;50.660;13.226;2023-05-01T11:51:14;10.48;;;5.15;;
27223;SDS011;14965;50.660;13.226;2023-05-01T11:53:57;8.98;;;5.32;;
27223;SDS011;14965;50.660;13.226;2023-05-01T11:56:24;9.23;;;5.40;;
27223;SDS011;14965;50.660;13.226;2023-05-01T11:58:49;10.18;;;5.25;;
27223;SDS011;14965;50.660;13.226;2023-05-01T12:01:18;8.03;;;5.33;;
27223;SDS011;14965;50.660;13.226;2023-05-01T12:03:43;11.40;;;5.38;;
27223;SDS011;14965;50.660;13.226;2023-05-01T12:06:09;14.48;;;5.47;;
27223;SDS011;14965;50.660;13.226;2023-05-01T12:08:40;9.88;;;5.70;;
27223;SDS011;14965;50.660;13.226;2023-05-01T12:11:09;8.18;;;5.05;;
27223;SDS011;14965;50.660;13.226;2023-05-01T12:13:36;10.98;;;5.28;;
27223;SDS011;14965;50.660;13.226;2023-05-01T12:16:03;12.77;;;6.00;;
27223;SDS011;14965;50.660;13.226;2023-05-01T12:18:30;12.40;;;5.40;;
27223;SDS011;14965;50.660;13.226;2023-05-01T12:20:56;9.48;;;5.25;;
27223;SDS011;14965;50.660;13.226;2023-05-01T12:23:29;13.30;;;5.45;;
27223;SDS011;14965;50.660;13.226;2023-05-01T12:25:57;12.27;;;5.45;;
27223;SDS011;14965;50.660;13.226;2023-05-01T12:28:24;8.02;;;5.57;;
27223;SDS011;14965;50.660;13.226;2023-05-01T12:30:50;11.45;;;5.10;;
27223;SDS011;14965;50.660;13.226;2023-05-01T12:33:17;9.43;;;4.90;;
27223;SDS011;14965;50.660;13.226;2023-05-01T12:35:45;10.80;;;6.30;;
27223;SDS011;14965;50.660;13.226;2023-05-01T12:38:13;11.30;;;6.13;;
27223;SDS011;14965;50.660;13.226;2023-05-01T12:40:50;11.83;;;5.17;;
27223;SDS011;14965;50.660;13.226;2023-05-01T12:43:19;12.38;;;5.80;;
27223;SDS011;14965;50.660;13.226;2023-05-01T12:45:49;12.13;;;5.32;;
27223;SDS011;14965;50.660;13.226;2023-05-01T12:48:17;9.88;;;5.20;;
27223;SDS011;14965;50.660;13.226;2023-05-01T12:50:44;9.85;;;5.63;;
27223;SDS011;14965;50.660;13.226;2023-05-01T12:53:11;10.93;;;6.32;;
27223;SDS011;14965;50.660;13.226;2023-05-01T12:55:44;8.23;;;5.32;;
27223;SDS011;14965;50.660;13.226;2023-05-01T12:58:12;9.45;;;5.55;;
27223;SDS011;14965;50.660;13.226;2023-05-01T13:00:40;11.57;;;5.32;;
27223;SDS011;14965;50.660;13.226;2023-05-01T13:03:10;10.55;;;5.75;;
27223;SDS011;14965;50.660;13.226;2023-05-01T13:05:41;13.98;;;5.50;;
27223;SDS011;14965;50.660;13.226;2023-05-01T13:08:21;8.82;;;5.50;;
27223;SDS011;14965;50.660;13.226;2023-05-01T13:10:52;10.38;;;5.40;;
27223;SDS011;14965;50.660;13.226;2023-05-01T13:13:22;11.35;;;5.75;;
27223;SDS011;14965;50.660;13.226;2023-05-01T13:15:49;9.88;;;5.57;;
27223;SDS011;14965;50.660;13.226;2023-05-01T13:18:17;9.75;;;5.32;;
27223;SDS011;14965;50.660;13.226;2023-05-01T13:20:43;11.43;;;5.43;;
27223;SDS011;14965;50.660;13.226;2023-05-01T13:23:09;9.70;;;5.63;;
27223;SDS011;14965;50.660;13.226;2023-05-01T13:25:35;9.38;;;5.22;;
27223;SDS011;14965;50.660;13.226;2023-05-01T13:28:01;10.65;;;5.50;;
27223;SDS011;14965;50.660;13.226;2023-05-01T13:30:30;11.13;;;5.38;;
27223;SDS011;14965;50.660;13.226;2023-05-01T13:32:58;10.45;;;5.07;;
27223;SDS011;14965;50.660;13.226;2023-05-01T13:35:26;13.02;;;5.25;;
27223;SDS011;14965;50.660;13.226;2023-05-01T13:37:52;8.98;;;4.80;;
27223;SDS011;14965;50.660;13.226;2023-05-01T13:40:19;13.15;;;5.93;;
27223;SDS011;14965;50.660;13.226;2023-05-01T13:42:45;11.60;;;6.07;;
27223;SDS011;14965;50.660;13.226;2023-05-01T13:45:16;12.43;;;5.70;;
27223;SDS011;14965;50.660;13.226;2023-05-01T13:47:44;10.77;;;6.03;;
27223;SDS011;14965;50.660;13.226;2023-05-01T13:50:11;10.77;;;6.18;;
27223;SDS011;14965;50.660;13.226;2023-05-01T13:52:40;11.18;;;5.93;;
27223;SDS011;14965;50.660;13.226;2023-05-01T13:55:08;11.25;;;5.85;;
27223;SDS011;14965;50.660;13.226;2023-05-01T13:57:34;10.13;;;5.32;;
27223;SDS011;14965;50.660;13.226;2023-05-01T14:00:01;12.52;;;5.93;;
27223;SDS011;14965;50.660;13.226;2023-05-01T14:02:28;9.27;;;5.47;;
27223;SDS011;14965;50.660;13.226;2023-05-01T14:04:54;11.63;;;5.85;;
27223;SDS011;14965;50.660;13.226;2023-05-01T14:07:21;9.30;;;5.68;;
27223;SDS011;14965;50.660;13.226;2023-05-01T14:09:51;12.73;;;5.60;;
27223;SDS011;14965;50.660;13.226;2023-05-01T14:12:19;10.95;;;5.85;;
27223;SDS011;14965;50.660;13.226;2023-05-01T14:14:50;13.77;;;6.10;;
27223;SDS011;14965;50.660;13.226;2023-05-01T14:17:16;11.48;;;6.53;;
27223;SDS011;14965;50.660;13.226;2023-05-01T14:19:42;7.78;;;5.32;;
27223;SDS011;14965;50.660;13.226;2023-05-01T14:22:07;10.70;;;5.43;;
27223;SDS011;14965;50.660;13.226;2023-05-01T14:24:34;12.80;;;5.72;;
27223;SDS011;14965;50.660;13.226;2023-05-01T14:27:05;9.70;;;5.85;;
27223;SDS011;14965;50.660;13.226;2023-05-01T14:29:32;10.95;;;5.13;;
27223;SDS011;14965;50.660;13.226;2023-05-01T14:32:01;11.35;;;5.95;;
27223;SDS011;14965;50.660;13.226;2023-05-01T14:34:27;9.35;;;5.72;;